sensor_id;sensor_type;location;lat;lon;timestamp;P1;durP1;ratioP1;P2;durP2;ratioP2
26516;SDS011;14190;51.342;6.338;2023-05-02T00:00:30;72.45;;;44.38;;
26516;SDS011;14190;51.342;6.338;2023-05-02T00:02:59;79.87;;;46.98;;
26516;SDS011;14190;51.342;6.338;2023-05-02T00:05:27;79.50;;;46.70;;
26516;SDS011;14190;51.342;6.338;2023-05-02T00:07:54;82.53;;;48.80;;
26516;SDS011;14190;51.342;6.338;2023-05-02T00:10:22;84.32;;;48.80;;
26516;SDS011;14190;51.342;6.338;2023-05-02T00:12:49;81.00;;;47.55;;
26516;SDS011;14190;51.342;6.338;2023-05-02T00:15:17;84.97;;;48.52;;
26516;SDS011;14190;51.342;6.338;2023-05-02T00:17:44;90.40;;;49.70;;
26516;SDS011;14190;51.342;6.338;2023-05-02T00:20:11;93.55;;;50.60;;
26516;SDS011;14190;51.342;6.338;2023-05-02T00:22:39;91.12;;;51.73;;
26516;SDS011;14190;51.342;6.338;2023-05-02T00:25:06;87.60;;;50.28;;
26516;SDS011;14190;51.342;6.338;2023-05-02T00:27:34;91.60;;;52.45;;
26516;SDS011;14190;51.342;6.338;2023-05-02T00:30:01;101.02;;;53.80;;
26516;SDS011;14190;51.342;6.338;2023-05-02T00:32:29;99.77;;;51.73;;
26516;SDS011;14190;51.342;6.338;2023-05-02T00:34:56;97.37;;;50.60;;
26516;SDS011;14190;51.342;6.338;2023-05-02T00:37:26;90.87;;;50.90;;
26516;SDS011;14190;51.342;6.338;2023-05-02T00:39:57;98.97;;;52.40;;
26516;SDS011;14190;51.342;6.338;2023-05-02T00:42:24;94.60;;;50.12;;
26516;SDS011;14190;51.342;6.338;2023-05-02T00:44:51;92.62;;;47.70;;
26516;SDS011;14190;51.342;6.338;2023-05-02T00:47:19;89.03;;;48.08;;
26516;SDS011;14190;51.342;6.338;2023-05-02T00:49:46;92.27;;;48.15;;
26516;SDS011;14190;51.342;6.338;2023-05-02T00:52:14;88.40;;;46.33;;
26516;SDS011;14190;51.342;6.338;2023-05-02T00:54:41;90.87;;;48.15;;
26516;SDS011;14190;51.342;6.338;2023-05-02T00:57:09;83.78;;;45.10;;
26516;SDS011;14190;51.342;6.338;2023-05-02T00:59:37;88.72;;;45.78;;
26516;SDS011;14190;51.342;6.338;2023-05-02T01:04:56;77.12;;;42.10;;
26516;SDS011;14190;51.342;6.338;2023-05-02T01:07:45;72.20;;;40.78;;
26516;SDS011;14190;51.342;6.338;2023-05-02T01:10:13;70.15;;;39.70;;
26516;SDS011;14190;51.342;6.338;2023-05-02T01:12:41;71.72;;;39.60;;
26516;SDS011;14190;51.342;6.338;2023-05-02T01:15:10;76.28;;;40.85;;
26516;SDS011;14190;51.342;6.338;2023-05-02T01:17:38;66.57;;;37.60;;
26516;SDS011;14190;51.342;6.338;2023-05-02T01:20:07;65.95;;;38.17;;
26516;SDS011;14190;51.342;6.338;2023-05-02T01:22:35;76.92;;;39.90;;
26516;SDS011;14190;51.342;6.338;2023-05-02T01:25:19;68.30;;;35.78;;
26516;SDS011;14190;51.342;6.338;2023-05-02T01:30:33;61.10;;;35.23;;
26516;SDS011;14190;51.342;6.338;2023-05-02T01:33:01;68.47;;;36.98;;
26516;SDS011;14190;51.342;6.338;2023-05-02T01:35:29;69.90;;;36.30;;
26516;SDS011;14190;51.342;6.338;2023-05-02T01:37:58;66.37;;;34.18;;
26516;SDS011;14190;51.342;6.338;2023-05-02T01:40:26;66.85;;;34.15;;
26516;SDS011;14190;51.342;6.338;2023-05-02T01:42:54;68.90;;;34.20;;
26516;SDS011;14190;51.342;6.338;2023-05-02T01:45:23;68.40;;;34.27;;
26516;SDS011;14190;51.342;6.338;2023-05-02T01:47:51;67.00;;;34.95;;
26516;SDS011;14190;51.342;6.338;2023-05-02T01:50:20;68.72;;;34.10;;
26516;SDS011;14190;51.342;6.338;2023-05-02T01:52:49;68.55;;;34.27;;
26516;SDS011;14190;51.342;6.338;2023-05-02T01:55:17;62.67;;;31.75;;
26516;SDS011;14190;51.342;6.338;2023-05-02T01:57:45;65.50;;;32.17;;
26516;SDS011;14190;51.342;6.338;2023-05-02T02:00:14;55.80;;;31.70;;
26516;SDS011;14190;51.342;6.338;2023-05-02T02:02:43;62.75;;;34.00;;
26516;SDS011;14190;51.342;6.338;2023-05-02T02:05:12;59.13;;;30.45;;
26516;SDS011;14190;51.342;6.338;2023-05-02T02:07:40;65.10;;;32.25;;
26516;SDS011;14190;51.342;6.338;2023-05-02T02:10:08;55.98;;;30.92;;
26516;SDS011;14190;51.342;6.338;2023-05-02T02:12:47;60.88;;;31.77;;
26516;SDS011;14190;51.342;6.338;2023-05-02T02:15:11;59.42;;;31.02;;
26516;SDS011;14190;51.342;6.338;2023-05-02T02:17:45;61.63;;;31.13;;
26516;SDS011;14190;51.342;6.338;2023-05-02T02:20:12;59.18;;;29.00;;
26516;SDS011;14190;51.342;6.338;2023-05-02T02:22:41;60.55;;;29.90;;
26516;SDS011;14190;51.342;6.338;2023-05-02T02:25:10;64.58;;;31.00;;
26516;SDS011;14190;51.342;6.338;2023-05-02T02:27:38;59.93;;;29.32;;
26516;SDS011;14190;51.342;6.338;2023-05-02T02:30:07;51.08;;;28.00;;
26516;SDS011;14190;51.342;6.338;2023-05-02T02:32:35;48.60;;;26.50;;
26516;SDS011;14190;51.342;6.338;2023-05-02T02:35:02;51.83;;;27.67;;
26516;SDS011;14190;51.342;6.338;2023-05-02T02:37:36;55.92;;;28.27;;
26516;SDS011;14190;51.342;6.338;2023-05-02T02:40:13;49.33;;;27.62;;
26516;SDS011;14190;51.342;6.338;2023-05-02T02:42:44;49.67;;;26.33;;
26516;SDS011;14190;51.342;6.338;2023-05-02T02:53:17;54.35;;;25.92;;
26516;SDS011;14190;51.342;6.338;2023-05-02T02:58:14;46.23;;;25.65;;
26516;SDS011;14190;51.342;6.338;2023-05-02T03:03:09;48.13;;;25.40;;
26516;SDS011;14190;51.342;6.338;2023-05-02T03:05:38;50.52;;;25.92;;
26516;SDS011;14190;51.342;6.338;2023-05-02T03:08:06;49.63;;;26.75;;
26516;SDS011;14190;51.342;6.338;2023-05-02T03:10:33;54.30;;;28.20;;
26516;SDS011;14190;51.342;6.338;2023-05-02T03:13:01;51.85;;;26.93;;
26516;SDS011;14190;51.342;6.338;2023-05-02T03:18:04;53.33;;;28.30;;
26516;SDS011;14190;51.342;6.338;2023-05-02T03:20:32;45.45;;;25.35;;
26516;SDS011;14190;51.342;6.338;2023-05-02T03:23:00;51.23;;;26.55;;
26516;SDS011;14190;51.342;6.338;2023-05-02T03:25:27;50.17;;;27.37;;
26516;SDS011;14190;51.342;6.338;2023-05-02T03:27:58;51.40;;;27.77;;
26516;SDS011;14190;51.342;6.338;2023-05-02T03:32:52;49.63;;;27.32;;
26516;SDS011;14190;51.342;6.338;2023-05-02T03:35:20;50.60;;;28.38;;
26516;SDS011;14190;51.342;6.338;2023-05-02T03:37:47;52.60;;;28.75;;
26516;SDS011;14190;51.342;6.338;2023-05-02T03:40:16;50.55;;;29.12;;
26516;SDS011;14190;51.342;6.338;2023-05-02T03:42:45;47.53;;;27.60;;
26516;SDS011;14190;51.342;6.338;2023-05-02T03:45:14;49.00;;;29.72;;
26516;SDS011;14190;51.342;6.338;2023-05-02T03:47:41;53.13;;;28.27;;
26516;SDS011;14190;51.342;6.338;2023-05-02T03:50:10;49.00;;;27.87;;
26516;SDS011;14190;51.342;6.338;2023-05-02T03:52:38;54.25;;;28.62;;
26516;SDS011;14190;51.342;6.338;2023-05-02T03:55:05;54.77;;;27.85;;
26516;SDS011;14190;51.342;6.338;2023-05-02T03:57:33;50.48;;;30.10;;
26516;SDS011;14190;51.342;6.338;2023-05-02T04:00:01;52.10;;;29.77;;
26516;SDS011;14190;51.342;6.338;2023-05-02T04:02:31;57.67;;;28.92;;
26516;SDS011;14190;51.342;6.338;2023-05-02T04:04:58;50.35;;;27.60;;
26516;SDS011;14190;51.342;6.338;2023-05-02T04:07:26;53.02;;;28.67;;
26516;SDS011;14190;51.342;6.338;2023-05-02T04:09:58;48.90;;;28.42;;
26516;SDS011;14190;51.342;6.338;2023-05-02T04:12:25;54.18;;;29.92;;
26516;SDS011;14190;51.342;6.338;2023-05-02T04:14:53;51.45;;;29.50;;
26516;SDS011;14190;51.342;6.338;2023-05-02T04:17:23;57.30;;;28.33;;
26516;SDS011;14190;51.342;6.338;2023-05-02T04:19:51;64.80;;;32.85;;
26516;SDS011;14190;51.342;6.338;2023-05-02T04:22:20;57.08;;;30.17;;
26516;SDS011;14190;51.342;6.338;2023-05-02T04:24:55;64.03;;;31.68;;
26516;SDS011;14190;51.342;6.338;2023-05-02T04:27:23;56.88;;;29.57;;
26516;SDS011;14190;51.342;6.338;2023-05-02T04:29:51;58.80;;;31.50;;
26516;SDS011;14190;51.342;6.338;2023-05-02T04:32:21;60.38;;;32.45;;
26516;SDS011;14190;51.342;6.338;2023-05-02T04:34:49;55.80;;;30.70;;
26516;SDS011;14190;51.342;6.338;2023-05-02T04:37:17;61.85;;;31.35;;
26516;SDS011;14190;51.342;6.338;2023-05-02T04:39:45;57.95;;;30.02;;
26516;SDS011;14190;51.342;6.338;2023-05-02T04:42:14;65.37;;;31.97;;
26516;SDS011;14190;51.342;6.338;2023-05-02T04:44:43;66.37;;;31.57;;
26516;SDS011;14190;51.342;6.338;2023-05-02T04:47:10;66.90;;;33.55;;
26516;SDS011;14190;51.342;6.338;2023-05-02T04:49:38;73.15;;;33.18;;
26516;SDS011;14190;51.342;6.338;2023-05-02T04:52:06;62.23;;;31.77;;
26516;SDS011;14190;51.342;6.338;2023-05-02T04:54:33;62.30;;;32.98;;
26516;SDS011;14190;51.342;6.338;2023-05-02T04:57:01;61.95;;;30.17;;
26516;SDS011;14190;51.342;6.338;2023-05-02T04:59:31;57.75;;;27.80;;
26516;SDS011;14190;51.342;6.338;2023-05-02T05:02:00;61.37;;;28.47;;
26516;SDS011;14190;51.342;6.338;2023-05-02T05:04:28;47.65;;;25.82;;
26516;SDS011;14190;51.342;6.338;2023-05-02T05:06:56;52.83;;;25.62;;
26516;SDS011;14190;51.342;6.338;2023-05-02T05:09:25;49.27;;;24.43;;
26516;SDS011;14190;51.342;6.338;2023-05-02T05:11:53;40.20;;;22.75;;
26516;SDS011;14190;51.342;6.338;2023-05-02T05:14:20;37.45;;;20.90;;
26516;SDS011;14190;51.342;6.338;2023-05-02T05:16:54;36.00;;;20.27;;
26516;SDS011;14190;51.342;6.338;2023-05-02T05:21:46;39.15;;;19.50;;
26516;SDS011;14190;51.342;6.338;2023-05-02T05:24:15;35.33;;;18.92;;
26516;SDS011;14190;51.342;6.338;2023-05-02T05:26:45;31.70;;;17.37;;
26516;SDS011;14190;51.342;6.338;2023-05-02T05:29:13;26.30;;;14.85;;
26516;SDS011;14190;51.342;6.338;2023-05-02T05:31:41;30.77;;;16.95;;
26516;SDS011;14190;51.342;6.338;2023-05-02T05:34:12;29.07;;;14.58;;
26516;SDS011;14190;51.342;6.338;2023-05-02T05:36:40;27.90;;;15.50;;
26516;SDS011;14190;51.342;6.338;2023-05-02T05:39:08;19.52;;;12.07;;
26516;SDS011;14190;51.342;6.338;2023-05-02T05:41:37;18.82;;;8.85;;
26516;SDS011;14190;51.342;6.338;2023-05-02T05:44:06;22.52;;;8.45;;
26516;SDS011;14190;51.342;6.338;2023-05-02T05:46:33;21.73;;;8.20;;
26516;SDS011;14190;51.342;6.338;2023-05-02T05:49:02;17.37;;;7.37;;
26516;SDS011;14190;51.342;6.338;2023-05-02T05:51:35;18.77;;;6.35;;
26516;SDS011;14190;51.342;6.338;2023-05-02T05:53:59;12.85;;;5.62;;
26516;SDS011;14190;51.342;6.338;2023-05-02T05:56:27;15.68;;;5.78;;
26516;SDS011;14190;51.342;6.338;2023-05-02T05:59:08;11.68;;;5.53;;
26516;SDS011;14190;51.342;6.338;2023-05-02T06:01:36;12.70;;;5.53;;
26516;SDS011;14190;51.342;6.338;2023-05-02T06:04:04;13.75;;;5.62;;
26516;SDS011;14190;51.342;6.338;2023-05-02T06:06:33;16.25;;;5.72;;
26516;SDS011;14190;51.342;6.338;2023-05-02T06:09:02;12.43;;;4.62;;
26516;SDS011;14190;51.342;6.338;2023-05-02T06:11:31;11.40;;;5.25;;
26516;SDS011;14190;51.342;6.338;2023-05-02T06:13:58;10.03;;;4.47;;
26516;SDS011;14190;51.342;6.338;2023-05-02T06:16:26;16.07;;;4.28;;
26516;SDS011;14190;51.342;6.338;2023-05-02T06:18:53;16.00;;;5.05;;
26516;SDS011;14190;51.342;6.338;2023-05-02T06:21:21;13.88;;;3.52;;
26516;SDS011;14190;51.342;6.338;2023-05-02T06:23:48;11.50;;;3.77;;
26516;SDS011;14190;51.342;6.338;2023-05-02T06:26:16;15.13;;;4.58;;
26516;SDS011;14190;51.342;6.338;2023-05-02T06:28:43;15.43;;;3.83;;
26516;SDS011;14190;51.342;6.338;2023-05-02T06:31:11;14.53;;;4.55;;
26516;SDS011;14190;51.342;6.338;2023-05-02T06:33:38;13.62;;;3.90;;
26516;SDS011;14190;51.342;6.338;2023-05-02T06:36:06;16.20;;;3.85;;
26516;SDS011;14190;51.342;6.338;2023-05-02T06:38:33;12.40;;;3.67;;
26516;SDS011;14190;51.342;6.338;2023-05-02T06:41:01;20.45;;;3.87;;
26516;SDS011;14190;51.342;6.338;2023-05-02T06:43:28;8.95;;;3.40;;
26516;SDS011;14190;51.342;6.338;2023-05-02T06:45:56;11.28;;;3.65;;
26516;SDS011;14190;51.342;6.338;2023-05-02T06:48:24;9.10;;;3.60;;
26516;SDS011;14190;51.342;6.338;2023-05-02T06:50:51;13.22;;;3.33;;
26516;SDS011;14190;51.342;6.338;2023-05-02T06:53:19;6.87;;;3.20;;
26516;SDS011;14190;51.342;6.338;2023-05-02T06:55:46;13.18;;;4.05;;
26516;SDS011;14190;51.342;6.338;2023-05-02T06:58:14;16.35;;;4.08;;
26516;SDS011;14190;51.342;6.338;2023-05-02T07:00:42;9.20;;;3.42;;
26516;SDS011;14190;51.342;6.338;2023-05-02T07:03:09;14.63;;;4.17;;
26516;SDS011;14190;51.342;6.338;2023-05-02T07:08:06;13.80;;;3.72;;
26516;SDS011;14190;51.342;6.338;2023-05-02T07:10:34;11.70;;;3.98;;
26516;SDS011;14190;51.342;6.338;2023-05-02T07:13:01;11.08;;;4.03;;
26516;SDS011;14190;51.342;6.338;2023-05-02T07:15:29;12.58;;;3.72;;
26516;SDS011;14190;51.342;6.338;2023-05-02T07:17:56;15.10;;;3.83;;
26516;SDS011;14190;51.342;6.338;2023-05-02T07:20:24;13.10;;;3.80;;
26516;SDS011;14190;51.342;6.338;2023-05-02T07:22:51;8.68;;;3.72;;
26516;SDS011;14190;51.342;6.338;2023-05-02T07:25:18;10.68;;;4.10;;
26516;SDS011;14190;51.342;6.338;2023-05-02T07:27:46;21.87;;;4.42;;
26516;SDS011;14190;51.342;6.338;2023-05-02T07:30:13;11.10;;;4.37;;
26516;SDS011;14190;51.342;6.338;2023-05-02T07:32:41;11.35;;;3.70;;
26516;SDS011;14190;51.342;6.338;2023-05-02T07:35:09;19.40;;;4.10;;
26516;SDS011;14190;51.342;6.338;2023-05-02T07:37:36;10.35;;;4.08;;
26516;SDS011;14190;51.342;6.338;2023-05-02T07:40:04;10.32;;;3.20;;
26516;SDS011;14190;51.342;6.338;2023-05-02T07:42:33;16.82;;;3.55;;
26516;SDS011;14190;51.342;6.338;2023-05-02T07:45:01;12.85;;;3.12;;
26516;SDS011;14190;51.342;6.338;2023-05-02T07:47:29;11.53;;;3.30;;
26516;SDS011;14190;51.342;6.338;2023-05-02T07:49:56;13.95;;;3.85;;
26516;SDS011;14190;51.342;6.338;2023-05-02T07:52:23;10.30;;;3.42;;
26516;SDS011;14190;51.342;6.338;2023-05-02T07:54:54;13.35;;;3.98;;
26516;SDS011;14190;51.342;6.338;2023-05-02T07:57:21;9.50;;;3.55;;
26516;SDS011;14190;51.342;6.338;2023-05-02T07:59:49;13.22;;;3.02;;
26516;SDS011;14190;51.342;6.338;2023-05-02T08:02:16;13.25;;;4.25;;
26516;SDS011;14190;51.342;6.338;2023-05-02T08:04:46;7.62;;;2.83;;
26516;SDS011;14190;51.342;6.338;2023-05-02T08:07:14;11.05;;;3.58;;
26516;SDS011;14190;51.342;6.338;2023-05-02T08:09:42;23.55;;;4.33;;
26516;SDS011;14190;51.342;6.338;2023-05-02T08:12:09;15.85;;;4.17;;
26516;SDS011;14190;51.342;6.338;2023-05-02T08:14:37;10.93;;;3.45;;
26516;SDS011;14190;51.342;6.338;2023-05-02T08:17:04;15.05;;;4.22;;
26516;SDS011;14190;51.342;6.338;2023-05-02T08:19:31;13.95;;;4.10;;
26516;SDS011;14190;51.342;6.338;2023-05-02T08:21:59;20.10;;;4.95;;
26516;SDS011;14190;51.342;6.338;2023-05-02T08:24:26;13.93;;;4.30;;
26516;SDS011;14190;51.342;6.338;2023-05-02T08:26:53;20.20;;;4.85;;
26516;SDS011;14190;51.342;6.338;2023-05-02T08:29:22;23.73;;;5.85;;
26516;SDS011;14190;51.342;6.338;2023-05-02T08:31:49;17.67;;;4.92;;
26516;SDS011;14190;51.342;6.338;2023-05-02T08:34:16;18.62;;;4.42;;
26516;SDS011;14190;51.342;6.338;2023-05-02T08:36:44;17.35;;;4.78;;
26516;SDS011;14190;51.342;6.338;2023-05-02T08:39:11;12.40;;;4.22;;
26516;SDS011;14190;51.342;6.338;2023-05-02T08:41:39;10.25;;;3.87;;
26516;SDS011;14190;51.342;6.338;2023-05-02T08:44:06;20.50;;;4.53;;
26516;SDS011;14190;51.342;6.338;2023-05-02T08:46:34;13.30;;;3.02;;
26516;SDS011;14190;51.342;6.338;2023-05-02T08:49:02;14.98;;;4.45;;
26516;SDS011;14190;51.342;6.338;2023-05-02T08:51:31;17.48;;;3.85;;
26516;SDS011;14190;51.342;6.338;2023-05-02T08:53:59;12.33;;;4.25;;
26516;SDS011;14190;51.342;6.338;2023-05-02T08:56:28;14.45;;;4.20;;
26516;SDS011;14190;51.342;6.338;2023-05-02T08:58:56;11.63;;;3.95;;
26516;SDS011;14190;51.342;6.338;2023-05-02T09:01:23;15.20;;;3.47;;
26516;SDS011;14190;51.342;6.338;2023-05-02T09:03:52;13.38;;;3.90;;
26516;SDS011;14190;51.342;6.338;2023-05-02T09:06:21;10.45;;;3.95;;
26516;SDS011;14190;51.342;6.338;2023-05-02T09:08:49;16.32;;;3.52;;
26516;SDS011;14190;51.342;6.338;2023-05-02T09:11:18;9.80;;;2.98;;
26516;SDS011;14190;51.342;6.338;2023-05-02T09:13:49;15.60;;;4.12;;
26516;SDS011;14190;51.342;6.338;2023-05-02T09:16:21;15.60;;;3.98;;
26516;SDS011;14190;51.342;6.338;2023-05-02T09:18:56;10.70;;;3.98;;
26516;SDS011;14190;51.342;6.338;2023-05-02T09:21:25;14.07;;;3.17;;
26516;SDS011;14190;51.342;6.338;2023-05-02T09:23:57;17.48;;;5.50;;
26516;SDS011;14190;51.342;6.338;2023-05-02T09:26:28;9.23;;;4.05;;
26516;SDS011;14190;51.342;6.338;2023-05-02T09:29:00;13.98;;;3.22;;
26516;SDS011;14190;51.342;6.338;2023-05-02T09:31:28;9.53;;;4.25;;
26516;SDS011;14190;51.342;6.338;2023-05-02T09:34:06;10.58;;;3.67;;
26516;SDS011;14190;51.342;6.338;2023-05-02T09:36:26;12.18;;;3.47;;
26516;SDS011;14190;51.342;6.338;2023-05-02T09:38:55;15.72;;;3.25;;
26516;SDS011;14190;51.342;6.338;2023-05-02T09:41:24;15.70;;;4.67;;
26516;SDS011;14190;51.342;6.338;2023-05-02T09:43:55;9.83;;;3.67;;
26516;SDS011;14190;51.342;6.338;2023-05-02T09:46:23;10.78;;;4.40;;
26516;SDS011;14190;51.342;6.338;2023-05-02T09:51:20;12.80;;;4.08;;
26516;SDS011;14190;51.342;6.338;2023-05-02T09:53:48;16.57;;;3.62;;
26516;SDS011;14190;51.342;6.338;2023-05-02T09:56:15;13.72;;;3.47;;
26516;SDS011;14190;51.342;6.338;2023-05-02T09:58:43;21.82;;;4.80;;
26516;SDS011;14190;51.342;6.338;2023-05-02T10:01:14;15.32;;;3.58;;
26516;SDS011;14190;51.342;6.338;2023-05-02T10:03:45;17.73;;;3.80;;
26516;SDS011;14190;51.342;6.338;2023-05-02T10:06:11;9.50;;;3.27;;
26516;SDS011;14190;51.342;6.338;2023-05-02T10:08:38;16.02;;;3.77;;
26516;SDS011;14190;51.342;6.338;2023-05-02T10:11:10;10.48;;;3.55;;
26516;SDS011;14190;51.342;6.338;2023-05-02T10:13:39;9.33;;;3.00;;
26516;SDS011;14190;51.342;6.338;2023-05-02T10:16:08;11.73;;;3.90;;
26516;SDS011;14190;51.342;6.338;2023-05-02T10:21:11;9.45;;;4.08;;
26516;SDS011;14190;51.342;6.338;2023-05-02T10:23:41;9.40;;;4.28;;
26516;SDS011;14190;51.342;6.338;2023-05-02T10:26:14;12.37;;;3.00;;
26516;SDS011;14190;51.342;6.338;2023-05-02T10:28:42;16.50;;;3.20;;
26516;SDS011;14190;51.342;6.338;2023-05-02T10:31:09;11.48;;;3.35;;
26516;SDS011;14190;51.342;6.338;2023-05-02T10:33:37;13.18;;;3.60;;
26516;SDS011;14190;51.342;6.338;2023-05-02T10:36:06;10.05;;;3.42;;
26516;SDS011;14190;51.342;6.338;2023-05-02T10:38:34;8.90;;;3.27;;
26516;SDS011;14190;51.342;6.338;2023-05-02T10:41:05;9.73;;;3.00;;
26516;SDS011;14190;51.342;6.338;2023-05-02T10:43:32;8.28;;;3.98;;
26516;SDS011;14190;51.342;6.338;2023-05-02T10:46:00;10.28;;;3.80;;
26516;SDS011;14190;51.342;6.338;2023-05-02T10:48:31;11.90;;;3.42;;
26516;SDS011;14190;51.342;6.338;2023-05-02T10:51:00;19.90;;;5.15;;
26516;SDS011;14190;51.342;6.338;2023-05-02T10:53:31;10.30;;;3.17;;
26516;SDS011;14190;51.342;6.338;2023-05-02T10:56:15;9.95;;;3.92;;
26516;SDS011;14190;51.342;6.338;2023-05-02T10:58:44;13.38;;;4.47;;
26516;SDS011;14190;51.342;6.338;2023-05-02T11:03:59;9.83;;;3.77;;
26516;SDS011;14190;51.342;6.338;2023-05-02T11:06:27;16.17;;;4.22;;
26516;SDS011;14190;51.342;6.338;2023-05-02T11:09:30;11.38;;;3.98;;
26516;SDS011;14190;51.342;6.338;2023-05-02T11:11:51;12.78;;;3.55;;
26516;SDS011;14190;51.342;6.338;2023-05-02T11:19:26;10.85;;;4.03;;
26516;SDS011;14190;51.342;6.338;2023-05-02T11:24:45;12.33;;;3.30;;
26516;SDS011;14190;51.342;6.338;2023-05-02T11:30:04;15.98;;;4.03;;
26516;SDS011;14190;51.342;6.338;2023-05-02T11:35:22;7.03;;;3.40;;
26516;SDS011;14190;51.342;6.338;2023-05-02T11:37:58;12.73;;;3.90;;
26516;SDS011;14190;51.342;6.338;2023-05-02T11:40:25;11.30;;;3.87;;
26516;SDS011;14190;51.342;6.338;2023-05-02T11:42:54;13.08;;;3.92;;
26516;SDS011;14190;51.342;6.338;2023-05-02T11:45:21;11.78;;;3.40;;
26516;SDS011;14190;51.342;6.338;2023-05-02T11:47:49;7.70;;;3.60;;
26516;SDS011;14190;51.342;6.338;2023-05-02T11:50:17;9.20;;;3.50;;
26516;SDS011;14190;51.342;6.338;2023-05-02T11:52:44;9.20;;;3.62;;
26516;SDS011;14190;51.342;6.338;2023-05-02T11:55:12;10.00;;;3.65;;
26516;SDS011;14190;51.342;6.338;2023-05-02T11:57:40;11.33;;;3.30;;
26516;SDS011;14190;51.342;6.338;2023-05-02T12:00:08;11.00;;;3.60;;
26516;SDS011;14190;51.342;6.338;2023-05-02T12:02:41;10.58;;;3.47;;
26516;SDS011;14190;51.342;6.338;2023-05-02T12:05:10;7.65;;;2.95;;
26516;SDS011;14190;51.342;6.338;2023-05-02T12:07:39;11.78;;;3.90;;
26516;SDS011;14190;51.342;6.338;2023-05-02T12:10:07;9.25;;;3.90;;
26516;SDS011;14190;51.342;6.338;2023-05-02T12:12:35;8.40;;;3.40;;
26516;SDS011;14190;51.342;6.338;2023-05-02T12:15:09;10.93;;;3.98;;
26516;SDS011;14190;51.342;6.338;2023-05-02T12:17:33;8.85;;;3.83;;
26516;SDS011;14190;51.342;6.338;2023-05-02T12:20:04;8.65;;;3.47;;
26516;SDS011;14190;51.342;6.338;2023-05-02T12:22:30;6.33;;;3.25;;
26516;SDS011;14190;51.342;6.338;2023-05-02T12:24:57;11.03;;;3.55;;
26516;SDS011;14190;51.342;6.338;2023-05-02T12:27:25;9.75;;;3.87;;
26516;SDS011;14190;51.342;6.338;2023-05-02T12:29:53;13.65;;;3.98;;
26516;SDS011;14190;51.342;6.338;2023-05-02T12:32:28;7.92;;;3.90;;
26516;SDS011;14190;51.342;6.338;2023-05-02T12:35:02;9.48;;;3.45;;
26516;SDS011;14190;51.342;6.338;2023-05-02T12:37:26;7.42;;;3.33;;
26516;SDS011;14190;51.342;6.338;2023-05-02T12:39:54;8.83;;;4.10;;
26516;SDS011;14190;51.342;6.338;2023-05-02T12:42:24;12.33;;;3.77;;
26516;SDS011;14190;51.342;6.338;2023-05-02T12:44:51;5.25;;;3.58;;
26516;SDS011;14190;51.342;6.338;2023-05-02T12:47:19;7.22;;;3.65;;
26516;SDS011;14190;51.342;6.338;2023-05-02T12:49:51;5.40;;;3.37;;
26516;SDS011;14190;51.342;6.338;2023-05-02T12:52:19;6.70;;;3.70;;
26516;SDS011;14190;51.342;6.338;2023-05-02T12:54:47;8.65;;;3.27;;
26516;SDS011;14190;51.342;6.338;2023-05-02T12:57:24;7.25;;;3.25;;
26516;SDS011;14190;51.342;6.338;2023-05-02T12:59:52;7.67;;;4.08;;
26516;SDS011;14190;51.342;6.338;2023-05-02T13:02:20;10.40;;;3.37;;
26516;SDS011;14190;51.342;6.338;2023-05-02T13:04:47;9.78;;;3.40;;
26516;SDS011;14190;51.342;6.338;2023-05-02T13:07:15;7.25;;;3.67;;
26516;SDS011;14190;51.342;6.338;2023-05-02T13:09:42;11.73;;;3.92;;
26516;SDS011;14190;51.342;6.338;2023-05-02T13:12:10;5.90;;;3.60;;
26516;SDS011;14190;51.342;6.338;2023-05-02T13:14:37;7.70;;;3.20;;
26516;SDS011;14190;51.342;6.338;2023-05-02T13:17:05;9.85;;;3.47;;
26516;SDS011;14190;51.342;6.338;2023-05-02T13:19:33;10.15;;;4.17;;
26516;SDS011;14190;51.342;6.338;2023-05-02T13:22:01;8.60;;;3.60;;
26516;SDS011;14190;51.342;6.338;2023-05-02T13:24:28;10.15;;;4.30;;
26516;SDS011;14190;51.342;6.338;2023-05-02T13:26:56;13.43;;;4.58;;
26516;SDS011;14190;51.342;6.338;2023-05-02T13:29:23;10.25;;;4.30;;
26516;SDS011;14190;51.342;6.338;2023-05-02T13:31:51;4.87;;;3.65;;
26516;SDS011;14190;51.342;6.338;2023-05-02T13:34:18;5.92;;;4.00;;
26516;SDS011;14190;51.342;6.338;2023-05-02T13:36:46;11.30;;;4.53;;
26516;SDS011;14190;51.342;6.338;2023-05-02T13:39:13;13.50;;;4.55;;
26516;SDS011;14190;51.342;6.338;2023-05-02T13:41:40;10.15;;;4.30;;
26516;SDS011;14190;51.342;6.338;2023-05-02T13:44:08;13.03;;;4.28;;
26516;SDS011;14190;51.342;6.338;2023-05-02T13:46:35;10.10;;;4.15;;
26516;SDS011;14190;51.342;6.338;2023-05-02T13:49:03;9.45;;;4.50;;
26516;SDS011;14190;51.342;6.338;2023-05-02T13:51:31;8.78;;;4.42;;
26516;SDS011;14190;51.342;6.338;2023-05-02T13:53:59;9.00;;;4.15;;
26516;SDS011;14190;51.342;6.338;2023-05-02T13:56:26;12.85;;;4.45;;
26516;SDS011;14190;51.342;6.338;2023-05-02T13:58:54;9.18;;;4.30;;
26516;SDS011;14190;51.342;6.338;2023-05-02T14:01:21;9.30;;;5.15;;
26516;SDS011;14190;51.342;6.338;2023-05-02T14:03:49;11.30;;;4.72;;
26516;SDS011;14190;51.342;6.338;2023-05-02T14:06:16;8.20;;;4.75;;
26516;SDS011;14190;51.342;6.338;2023-05-02T14:08:43;16.87;;;5.17;;
26516;SDS011;14190;51.342;6.338;2023-05-02T14:11:11;11.48;;;4.12;;
26516;SDS011;14190;51.342;6.338;2023-05-02T14:13:38;9.73;;;4.30;;
26516;SDS011;14190;51.342;6.338;2023-05-02T14:16:06;12.37;;;5.05;;
26516;SDS011;14190;51.342;6.338;2023-05-02T14:18:33;8.13;;;4.70;;
26516;SDS011;14190;51.342;6.338;2023-05-02T14:21:00;12.47;;;4.67;;
26516;SDS011;14190;51.342;6.338;2023-05-02T14:23:29;10.82;;;4.08;;
26516;SDS011;14190;51.342;6.338;2023-05-02T14:25:56;10.95;;;5.00;;
26516;SDS011;14190;51.342;6.338;2023-05-02T14:28:24;10.48;;;4.20;;
26516;SDS011;14190;51.342;6.338;2023-05-02T14:30:52;7.33;;;5.30;;
26516;SDS011;14190;51.342;6.338;2023-05-02T14:33:19;9.13;;;4.45;;
26516;SDS011;14190;51.342;6.338;2023-05-02T14:35:47;10.85;;;4.95;;
26516;SDS011;14190;51.342;6.338;2023-05-02T14:38:15;9.65;;;4.78;;
26516;SDS011;14190;51.342;6.338;2023-05-02T14:40:42;12.15;;;4.95;;
26516;SDS011;14190;51.342;6.338;2023-05-02T14:43:09;12.35;;;4.78;;
26516;SDS011;14190;51.342;6.338;2023-05-02T14:45:39;11.03;;;6.00;;
26516;SDS011;14190;51.342;6.338;2023-05-02T14:48:07;8.03;;;4.72;;
26516;SDS011;14190;51.342;6.338;2023-05-02T14:50:35;11.40;;;5.05;;
26516;SDS011;14190;51.342;6.338;2023-05-02T14:53:04;7.50;;;4.70;;
26516;SDS011;14190;51.342;6.338;2023-05-02T14:55:35;11.70;;;4.58;;
26516;SDS011;14190;51.342;6.338;2023-05-02T14:58:04;8.50;;;5.05;;
26516;SDS011;14190;51.342;6.338;2023-05-02T15:00:33;11.75;;;4.40;;
26516;SDS011;14190;51.342;6.338;2023-05-02T15:03:03;8.63;;;4.47;;
26516;SDS011;14190;51.342;6.338;2023-05-02T15:05:31;10.23;;;4.30;;
26516;SDS011;14190;51.342;6.338;2023-05-02T15:07:58;8.13;;;4.60;;
26516;SDS011;14190;51.342;6.338;2023-05-02T15:10:26;9.53;;;4.72;;
26516;SDS011;14190;51.342;6.338;2023-05-02T15:12:54;9.78;;;4.87;;
26516;SDS011;14190;51.342;6.338;2023-05-02T15:15:22;11.48;;;4.67;;
26516;SDS011;14190;51.342;6.338;2023-05-02T15:17:50;11.18;;;4.62;;
26516;SDS011;14190;51.342;6.338;2023-05-02T15:20:18;9.93;;;4.80;;
26516;SDS011;14190;51.342;6.338;2023-05-02T15:22:45;14.20;;;4.25;;
26516;SDS011;14190;51.342;6.338;2023-05-02T15:25:13;10.45;;;4.67;;
26516;SDS011;14190;51.342;6.338;2023-05-02T15:27:40;10.40;;;4.92;;
26516;SDS011;14190;51.342;6.338;2023-05-02T15:30:08;10.48;;;5.12;;